Charter Quote
Worldwide +1-877-727-2538 Call
Select Language Lang
SAFETY RELIABILITY EXPERIENCE

Marshfield Muni - George Harlo (KGHG) - Jet Charter Services

AIRPORT INFORMATION
ICAOKGHG
LOCATIONMarshfield, MA, United States
FACILITY TYPEAIRPORT
Runway Length (ft) Width (ft) Surface Type Elevation (ft)
06/24 2009 75 ASP 9.00000

At Paramount Business Jets you can hire chartered private jets to and from Marshfield Muni - George Harlo with as little as 4 hours of notice. All flights booked via Paramount Business Jets are operated by certified direct air carriers that meet and exceed the FAA part 135 and 121 protocol or a foreign equivalent safety authority. Furthermore, Paramount Business Jets subscribes to ARGUS for their third party safety checks of operators, aircraft, and crews prior each and every flight to and from Marshfield Muni - George Harlo and worldwide.

  • Quote a trip using Marshfield Muni - George Harlo or call us 24/7 - 365 days a year at +1-877-727-2538.
Questions? Call +1-877-727-2538

METAR Weather Data at Marshfield Muni - George Harlo, KGHG

STATIONKGHG
OBSERVEDMon Apr 22, 03:55 UTC
NOWMon Apr 22, 04:03 UTC
AGE8 min ago
WINDcalm
VISIBILITY10 miles
CLOUDSclear skies
TEMP54°F (12°C)
DEWPT54°F (12°C)
HUMIDITY100%
BAROMETER1020 hPa (30.12 in Hg)
METARKGHG 220355Z AUTO 00000KT 10SM CLR 12/12 A3012 RMK AO2

Call us on +1-877-727-2538 (24 Hours) to Hire a Private Jet or Get a Quick Quote.

Find Airports Near any Location

Processing
...